createdAt,value
2023-12-30T00:02:59.207Z,6.80
2023-12-30T00:06:02.205Z,9.18
2023-12-30T00:09:06.141Z,10.75
2023-12-30T00:12:10.307Z,6.65
2023-12-30T00:15:13.117Z,12.55
2023-12-30T00:18:16.455Z,12.50
2023-12-30T00:21:20.390Z,10.98
2023-12-30T00:24:24.404Z,10.25
2023-12-30T00:27:27.472Z,8.27
2023-12-30T00:30:30.189Z,12.43
2023-12-30T00:33:33.286Z,10.88
2023-12-30T00:36:35.981Z,8.68
2023-12-30T00:39:42.713Z,12.07
2023-12-30T00:42:45.381Z,8.35
2023-12-30T00:45:49.599Z,10.73
2023-12-30T00:48:57.261Z,11.00
2023-12-30T00:52:01.147Z,9.07
2023-12-30T00:55:05.943Z,10.80
2023-12-30T00:58:09.710Z,8.35
2023-12-30T01:01:12.386Z,10.98
2023-12-30T01:04:15.101Z,13.93
2023-12-30T01:07:17.896Z,10.30
2023-12-30T01:10:22.120Z,12.60
2023-12-30T01:13:24.871Z,12.23
2023-12-30T01:16:27.653Z,7.80
2023-12-30T01:19:30.385Z,7.20
2023-12-30T01:22:33.079Z,8.07
2023-12-30T01:25:39.193Z,11.30
2023-12-30T01:28:41.901Z,12.95
2023-12-30T01:31:44.575Z,15.15
2023-12-30T01:34:47.385Z,9.57
2023-12-30T01:37:50.053Z,14.20
2023-12-30T01:40:56.556Z,9.68
2023-12-30T01:43:59.439Z,12.02
2023-12-30T01:47:02.483Z,9.93
2023-12-30T01:50:06.275Z,9.05
2023-12-30T01:53:08.958Z,9.52
2023-12-30T01:56:12.963Z,11.38
2023-12-30T01:59:15.691Z,7.70
2023-12-30T02:02:18.401Z,10.25
2023-12-30T02:05:21.271Z,13.00
2023-12-30T02:08:23.963Z,11.77
2023-12-30T02:11:27.980Z,10.10
2023-12-30T02:14:31.625Z,9.70
2023-12-30T02:17:34.406Z,11.50
2023-12-30T02:20:37.286Z,13.27
2023-12-30T02:23:41.459Z,13.32
2023-12-30T02:26:44.073Z,10.05
2023-12-30T02:29:46.850Z,10.70
2023-12-30T02:32:49.560Z,7.30
2023-12-30T02:35:52.257Z,15.23
2023-12-30T02:38:57.492Z,5.32
2023-12-30T02:42:00.154Z,9.95
2023-12-30T02:45:02.815Z,10.25
2023-12-30T02:48:06.544Z,23.08
2023-12-30T02:51:09.172Z,16.40
2023-12-30T02:54:13.136Z,10.90
2023-12-30T02:57:15.741Z,9.70
2023-12-30T03:00:19.522Z,15.57
2023-12-30T03:03:22.326Z,17.30
2023-12-30T03:06:25.112Z,14.45
2023-12-30T03:09:29.044Z,13.13
2023-12-30T03:12:31.895Z,15.38
2023-12-30T03:15:34.575Z,9.23
2023-12-30T03:18:37.261Z,11.02
2023-12-30T03:21:40.033Z,9.27
2023-12-30T03:24:43.953Z,7.57
2023-12-30T03:27:46.674Z,20.23
2023-12-30T03:30:49.346Z,14.65
2023-12-30T03:33:52.470Z,10.30
2023-12-30T03:36:55.316Z,13.93
2023-12-30T03:39:59.357Z,10.18
2023-12-30T03:43:02.699Z,15.95
2023-12-30T03:46:05.821Z,14.93
2023-12-30T03:49:08.527Z,16.15
2023-12-30T03:52:11.719Z,15.23
2023-12-30T03:55:15.878Z,12.80
2023-12-30T03:58:18.582Z,13.70
2023-12-30T04:01:21.275Z,11.02
2023-12-30T04:04:23.951Z,14.20
2023-12-30T04:07:26.600Z,13.15
2023-12-30T04:10:30.729Z,8.93
2023-12-30T04:13:33.727Z,17.35
2023-12-30T04:16:36.424Z,17.65
2023-12-30T04:19:39.126Z,7.63
2023-12-30T04:22:41.791Z,7.95
2023-12-30T04:25:45.853Z,10.05
2023-12-30T04:28:48.533Z,12.23
2023-12-30T04:31:51.223Z,9.85
2023-12-30T04:34:53.999Z,11.98
2023-12-30T04:37:56.712Z,10.18
2023-12-30T04:41:00.720Z,5.43
2023-12-30T04:44:03.612Z,4.03
2023-12-30T04:47:07.425Z,13.38
2023-12-30T04:50:10.626Z,13.98
2023-12-30T04:53:13.643Z,11.82
2023-12-30T04:56:18.004Z,13.70
2023-12-30T04:59:20.806Z,8.98
2023-12-30T05:02:23.424Z,9.07
2023-12-30T05:05:26.062Z,10.40
2023-12-30T05:08:28.724Z,11.30
2023-12-30T05:11:32.732Z,8.90
2023-12-30T05:14:35.444Z,7.18
2023-12-30T05:17:38.198Z,7.88
2023-12-30T05:20:40.920Z,11.25
2023-12-30T05:23:43.571Z,12.38
2023-12-30T05:26:47.531Z,10.98
2023-12-30T05:29:50.273Z,14.15
2023-12-30T05:32:53.032Z,10.57
2023-12-30T05:35:55.696Z,9.10
2023-12-30T05:38:58.330Z,8.43
2023-12-30T05:42:02.256Z,13.60
2023-12-30T05:45:05.478Z,13.52
2023-12-30T05:48:08.649Z,10.60
2023-12-30T05:51:11.548Z,9.13
2023-12-30T05:54:14.141Z,12.50
2023-12-30T05:57:18.994Z,10.07
2023-12-30T06:00:21.963Z,11.57
2023-12-30T06:03:24.551Z,14.60
2023-12-30T06:06:29.517Z,17.38
2023-12-30T06:09:33.842Z,12.07
2023-12-30T06:12:37.841Z,17.27
2023-12-30T06:15:40.482Z,18.80
2023-12-30T06:18:43.146Z,12.50
2023-12-30T06:21:45.800Z,11.15
2023-12-30T06:24:48.463Z,11.25
2023-12-30T06:27:52.455Z,18.55
2023-12-30T06:30:55.299Z,11.13
2023-12-30T06:33:58.191Z,10.25
2023-12-30T06:37:00.940Z,16.27
2023-12-30T06:40:03.921Z,13.38
2023-12-30T06:43:08.008Z,10.63
2023-12-30T06:46:10.642Z,10.15
2023-12-30T06:49:13.471Z,9.13
2023-12-30T06:52:16.250Z,12.55
2023-12-30T06:55:23.449Z,10.75
2023-12-30T06:58:32.853Z,9.20
2023-12-30T07:01:40.280Z,14.65
2023-12-30T07:04:42.991Z,12.65
2023-12-30T07:07:45.590Z,8.70
2023-12-30T07:10:48.659Z,10.02
2023-12-30T07:13:52.647Z,13.13
2023-12-30T07:16:55.294Z,14.77
2023-12-30T07:20:00.229Z,10.27
2023-12-30T07:23:03.558Z,10.70
2023-12-30T07:26:06.337Z,16.73
2023-12-30T07:29:10.354Z,9.07
2023-12-30T07:32:12.962Z,7.97
2023-12-30T07:35:15.763Z,9.68
2023-12-30T07:38:18.444Z,10.85
2023-12-30T07:41:21.102Z,12.68
2023-12-30T07:44:25.021Z,9.32
2023-12-30T07:47:27.962Z,14.85
2023-12-30T07:50:30.579Z,8.98
2023-12-30T07:53:33.641Z,8.65
2023-12-30T07:56:36.317Z,15.85
2023-12-30T07:59:40.343Z,18.48
2023-12-30T08:02:43.074Z,15.18
2023-12-30T08:05:45.834Z,16.75
2023-12-30T08:08:48.581Z,19.83
2023-12-30T08:11:59.183Z,14.13
2023-12-30T08:15:09.053Z,10.07
2023-12-30T08:18:12.260Z,11.65
2023-12-30T08:21:15.007Z,7.57
2023-12-30T08:24:19.307Z,10.45
2023-12-30T08:27:21.899Z,11.30
2023-12-30T08:30:25.887Z,11.45
2023-12-30T08:33:28.670Z,10.13
2023-12-30T08:36:31.534Z,11.80
2023-12-30T08:39:34.277Z,10.13
2023-12-30T08:42:37.079Z,12.23
2023-12-30T08:45:41.111Z,16.88
2023-12-30T08:48:43.801Z,10.88
2023-12-30T08:51:46.488Z,10.95
2023-12-30T08:54:49.169Z,11.73
2023-12-30T08:57:51.822Z,8.88
2023-12-30T09:00:55.969Z,15.98
2023-12-30T09:03:58.771Z,13.82
2023-12-30T09:07:01.559Z,10.73
2023-12-30T09:10:04.543Z,12.38
2023-12-30T09:13:07.726Z,12.48
2023-12-30T09:16:12.046Z,10.30
2023-12-30T09:19:14.851Z,12.38
2023-12-30T09:22:17.560Z,9.40
2023-12-30T09:25:20.296Z,9.98
2023-12-30T09:28:23.034Z,18.52
2023-12-30T09:31:28.203Z,15.88
2023-12-30T09:34:38.985Z,6.05
2023-12-30T09:37:46.539Z,8.52
2023-12-30T09:40:49.125Z,16.48
2023-12-30T09:43:51.743Z,19.50
2023-12-30T09:46:56.001Z,14.90
2023-12-30T09:49:58.620Z,18.05
2023-12-30T09:53:01.510Z,6.82
2023-12-30T09:56:04.434Z,9.63
2023-12-30T09:59:07.060Z,7.60
2023-12-30T10:02:11.408Z,14.18
2023-12-30T10:05:14.206Z,9.98
2023-12-30T10:08:16.936Z,15.13
2023-12-30T10:11:19.608Z,13.25
2023-12-30T10:14:22.321Z,9.60
2023-12-30T10:17:26.422Z,16.25
2023-12-30T10:20:29.074Z,16.38
2023-12-30T10:23:32.234Z,17.27
2023-12-30T10:26:34.874Z,12.27
2023-12-30T10:29:46.831Z,10.75
2023-12-30T10:32:55.780Z,16.13
2023-12-30T10:35:58.521Z,8.13
2023-12-30T10:39:01.195Z,13.82
2023-12-30T10:42:03.807Z,11.60
2023-12-30T10:45:07.186Z,24.40
2023-12-30T10:48:11.222Z,6.47
2023-12-30T10:51:15.043Z,15.30
2023-12-30T10:54:21.804Z,14.40
2023-12-30T10:57:24.476Z,22.85
2023-12-30T11:00:27.068Z,19.05
2023-12-30T11:03:32.567Z,19.45
2023-12-30T11:06:38.954Z,12.05
2023-12-30T11:09:41.583Z,13.38
2023-12-30T11:12:44.255Z,13.05
2023-12-30T11:15:46.890Z,19.73
2023-12-30T11:18:51.730Z,9.73
2023-12-30T11:21:55.369Z,22.50
2023-12-30T11:24:58.049Z,13.70
2023-12-30T11:28:13.678Z,17.75
2023-12-30T11:31:16.282Z,8.63
2023-12-30T11:34:20.426Z,16.33
2023-12-30T11:37:23.330Z,19.40
2023-12-30T11:40:26.736Z,14.93
2023-12-30T11:43:29.448Z,22.67
2023-12-30T11:46:32.201Z,25.10
2023-12-30T11:49:37.169Z,24.45
2023-12-30T11:52:39.917Z,28.02
2023-12-30T11:55:42.650Z,16.02
2023-12-30T11:58:45.366Z,17.73
2023-12-30T12:01:48.748Z,12.32
2023-12-30T12:04:52.878Z,19.65
2023-12-30T12:07:55.534Z,17.88
2023-12-30T12:10:58.243Z,10.38
2023-12-30T12:14:00.890Z,11.20
2023-12-30T12:17:05.540Z,16.63
2023-12-30T12:20:12.063Z,15.93
2023-12-30T12:23:15.061Z,16.38
2023-12-30T12:26:18.237Z,24.42
2023-12-30T12:29:22.091Z,27.55
2023-12-30T12:32:26.633Z,17.65
2023-12-30T12:35:31.866Z,10.18
2023-12-30T12:38:34.528Z,13.18
2023-12-30T12:41:37.547Z,18.48
2023-12-30T12:44:40.143Z,10.98
2023-12-30T12:47:42.936Z,14.23
2023-12-30T12:50:46.956Z,16.80
2023-12-30T12:53:49.976Z,12.98
2023-12-30T12:56:52.624Z,11.88
2023-12-30T12:59:55.222Z,14.95
2023-12-30T13:02:59.650Z,13.48
2023-12-30T13:06:13.246Z,14.82
2023-12-30T13:09:35.531Z,12.02
2023-12-30T13:12:38.630Z,14.52
2023-12-30T13:15:41.440Z,12.93
2023-12-30T13:18:44.177Z,14.88
2023-12-30T13:21:49.505Z,24.17
2023-12-30T13:24:52.679Z,7.70
2023-12-30T13:27:55.397Z,21.33
2023-12-30T13:30:58.709Z,16.85
2023-12-30T13:34:01.615Z,7.05
2023-12-30T13:37:07.241Z,12.02
2023-12-30T13:40:14.816Z,9.05
2023-12-30T13:43:17.614Z,7.53
2023-12-30T13:46:35.153Z,6.43
2023-12-30T13:49:59.592Z,8.65
2023-12-30T13:53:04.524Z,14.10
2023-12-30T13:56:08.036Z,10.07
2023-12-30T13:59:13.389Z,7.63
2023-12-30T14:02:19.015Z,9.00
2023-12-30T14:05:29.562Z,12.18
2023-12-30T14:08:37.908Z,14.00
2023-12-30T14:11:47.740Z,7.97
2023-12-30T14:14:54.606Z,3.70
2023-12-30T14:17:57.362Z,12.65
2023-12-30T14:21:00.050Z,13.77
2023-12-30T14:24:04.155Z,10.43
2023-12-30T14:27:06.821Z,9.88
2023-12-30T14:30:12.979Z,6.88
2023-12-30T14:33:15.910Z,16.55
2023-12-30T14:36:18.609Z,7.03
2023-12-30T14:39:22.931Z,6.57
2023-12-30T14:42:25.815Z,15.30
2023-12-30T14:45:28.421Z,8.15
2023-12-30T14:48:31.041Z,8.13
2023-12-30T14:51:33.655Z,9.00
2023-12-30T14:54:39.002Z,4.60
2023-12-30T14:57:42.178Z,10.63
2023-12-30T15:00:45.076Z,6.00
2023-12-30T15:03:47.790Z,5.13
2023-12-30T15:06:50.917Z,4.13
2023-12-30T15:09:54.848Z,5.88
2023-12-30T15:12:57.469Z,3.22
2023-12-30T15:16:00.203Z,9.32
2023-12-30T15:19:03.028Z,7.35
2023-12-30T15:22:06.325Z,8.25
2023-12-30T15:25:12.397Z,3.35
2023-12-30T15:28:15.056Z,9.95
2023-12-30T15:31:17.906Z,4.15
2023-12-30T15:34:20.685Z,5.20
2023-12-30T15:37:24.147Z,7.05
2023-12-30T15:40:28.318Z,4.28
2023-12-30T15:43:32.803Z,5.13
2023-12-30T15:46:36.795Z,3.17
2023-12-30T15:49:41.582Z,8.68
2023-12-30T15:52:44.559Z,8.80
2023-12-30T15:55:49.403Z,3.97
2023-12-30T15:58:52.565Z,6.75
2023-12-30T16:01:55.325Z,1.83
2023-12-30T16:04:57.969Z,2.95
2023-12-30T16:08:00.648Z,4.30
2023-12-30T16:11:04.887Z,2.95
2023-12-30T16:14:10.909Z,2.40
2023-12-30T16:17:14.205Z,2.58
2023-12-30T16:20:16.854Z,5.90
2023-12-30T16:23:19.501Z,3.08
2023-12-30T16:26:23.857Z,7.60
2023-12-30T16:29:26.516Z,5.78
2023-12-30T16:32:29.379Z,2.78
2023-12-30T16:35:32.110Z,7.03
2023-12-30T16:38:34.698Z,6.70
2023-12-30T16:41:38.686Z,3.92
2023-12-30T16:44:41.861Z,5.45
2023-12-30T16:47:44.634Z,9.77
2023-12-30T16:50:47.792Z,2.00
2023-12-30T16:53:50.403Z,5.20
2023-12-30T16:56:54.332Z,6.88
2023-12-30T16:59:56.908Z,3.38
2023-12-30T17:02:59.782Z,5.82
2023-12-30T17:06:03.257Z,4.00
2023-12-30T17:09:06.460Z,1.10
2023-12-30T17:12:10.718Z,4.18
2023-12-30T17:15:15.228Z,4.07
2023-12-30T17:18:17.837Z,2.50
2023-12-30T17:21:20.440Z,2.92
2023-12-30T17:24:23.102Z,5.30
2023-12-30T17:27:27.108Z,2.70
2023-12-30T17:30:30.016Z,3.20
2023-12-30T17:33:32.689Z,2.47
2023-12-30T17:36:35.299Z,7.85
2023-12-30T17:39:37.898Z,3.67
2023-12-30T17:42:41.809Z,2.13
2023-12-30T17:45:44.570Z,3.33
2023-12-30T17:48:47.236Z,4.05
2023-12-30T17:51:49.812Z,4.75
2023-12-30T17:54:52.406Z,2.97
2023-12-30T17:57:56.327Z,3.53
2023-12-30T18:00:58.960Z,2.80
2023-12-30T18:04:02.231Z,3.10
2023-12-30T18:07:05.296Z,2.88
2023-12-30T18:10:08.828Z,2.88
2023-12-30T18:13:13.061Z,1.40
2023-12-30T18:16:15.788Z,2.03
2023-12-30T18:19:18.717Z,2.50
2023-12-30T18:22:21.370Z,2.72
2023-12-30T18:25:24.164Z,2.58
2023-12-30T18:28:28.221Z,4.25
2023-12-30T18:31:32.343Z,4.82
2023-12-30T18:34:36.321Z,3.22
2023-12-30T18:37:39.156Z,3.40
2023-12-30T18:40:43.465Z,3.17
2023-12-30T18:43:47.603Z,3.25
2023-12-30T18:46:50.763Z,4.78
2023-12-30T18:49:53.466Z,4.47
2023-12-30T18:52:57.652Z,6.13
2023-12-30T18:56:04.246Z,5.50
2023-12-30T18:59:08.259Z,9.70
2023-12-30T19:02:10.989Z,5.13
2023-12-30T19:05:14.099Z,3.55
2023-12-30T19:08:16.782Z,6.45
2023-12-30T19:11:20.015Z,3.05
2023-12-30T19:14:24.703Z,4.50
2023-12-30T19:17:28.178Z,2.25
2023-12-30T19:20:30.974Z,4.72
2023-12-30T19:23:35.974Z,9.45
2023-12-30T19:26:38.620Z,4.97
2023-12-30T19:29:42.601Z,5.00
2023-12-30T19:32:45.253Z,2.55
2023-12-30T19:35:48.370Z,4.88
2023-12-30T19:38:51.428Z,8.40
2023-12-30T19:41:54.016Z,2.40
2023-12-30T19:44:58.238Z,6.15
2023-12-30T19:48:01.356Z,8.65
2023-12-30T19:51:05.481Z,5.95
2023-12-30T19:54:08.197Z,4.45
2023-12-30T19:57:11.368Z,4.20
2023-12-30T20:00:16.058Z,6.97
2023-12-30T20:03:19.233Z,6.43
2023-12-30T20:06:21.886Z,4.63
2023-12-30T20:09:24.575Z,2.17
2023-12-30T20:12:29.069Z,5.72
2023-12-30T20:15:33.000Z,3.08
2023-12-30T20:18:36.225Z,6.93
2023-12-30T20:21:39.515Z,5.32
2023-12-30T20:24:42.102Z,6.57
2023-12-30T20:27:44.727Z,3.42
2023-12-30T20:30:48.700Z,6.10
2023-12-30T20:33:51.473Z,8.13
2023-12-30T20:36:54.136Z,3.00
2023-12-30T20:39:56.727Z,4.60
2023-12-30T20:43:00.174Z,4.30
2023-12-30T20:46:08.858Z,5.45
2023-12-30T20:49:11.594Z,4.50
2023-12-30T20:52:14.686Z,4.90
2023-12-30T20:55:17.443Z,1.70
2023-12-30T20:58:20.235Z,3.42
2023-12-30T21:01:24.309Z,2.85
2023-12-30T21:04:27.084Z,3.05
2023-12-30T21:07:29.733Z,4.00
2023-12-30T21:10:32.406Z,5.55
2023-12-30T21:13:35.042Z,3.58
2023-12-30T21:16:39.096Z,3.65
2023-12-30T21:19:41.949Z,3.72
2023-12-30T21:22:44.619Z,4.18
2023-12-30T21:25:50.186Z,3.85
2023-12-30T21:28:52.933Z,3.92
2023-12-30T21:31:56.980Z,2.58
2023-12-30T21:34:59.683Z,2.80
2023-12-30T21:38:02.714Z,3.83
2023-12-30T21:41:06.088Z,3.42
2023-12-30T21:44:08.686Z,6.50
2023-12-30T21:47:12.681Z,4.47
2023-12-30T21:50:15.471Z,5.43
2023-12-30T21:53:18.155Z,5.63
2023-12-30T21:56:20.773Z,2.70
2023-12-30T21:59:23.401Z,2.83
2023-12-30T22:02:27.550Z,3.13
2023-12-30T22:05:30.478Z,4.80
2023-12-30T22:08:33.102Z,3.53
2023-12-30T22:11:35.735Z,6.90
2023-12-30T22:14:39.451Z,3.90
2023-12-30T22:17:43.431Z,4.50
2023-12-30T22:20:46.045Z,3.30
2023-12-30T22:23:49.082Z,3.67
2023-12-30T22:26:51.731Z,2.65
2023-12-30T22:29:54.323Z,3.38
2023-12-30T22:32:58.406Z,4.32
2023-12-30T22:36:01.551Z,5.50
2023-12-30T22:39:04.150Z,5.78
2023-12-30T22:42:06.978Z,3.53
2023-12-30T22:45:10.270Z,4.57
2023-12-30T22:48:14.835Z,3.65
2023-12-30T22:51:17.506Z,4.60
2023-12-30T22:54:20.103Z,2.17
2023-12-30T22:57:22.727Z,3.28
2023-12-30T23:00:28.195Z,7.35
2023-12-30T23:03:32.138Z,2.30
2023-12-30T23:06:34.795Z,2.25
2023-12-30T23:09:37.919Z,2.08
2023-12-30T23:12:40.549Z,3.50
2023-12-30T23:15:43.222Z,2.63
2023-12-30T23:18:47.311Z,5.90
2023-12-30T23:21:50.101Z,3.58
2023-12-30T23:24:52.751Z,3.15
2023-12-30T23:27:55.349Z,2.80
2023-12-30T23:30:58.003Z,1.60
2023-12-30T23:34:02.652Z,3.75
2023-12-30T23:37:05.828Z,1.98
2023-12-30T23:40:10.162Z,3.78
2023-12-30T23:43:12.929Z,3.80
2023-12-30T23:46:15.570Z,3.00
2023-12-30T23:49:19.663Z,2.85
2023-12-30T23:52:22.383Z,2.78
2023-12-30T23:55:25.057Z,5.18
2023-12-30T23:58:27.757Z,1.63
